Time;durP1;ratioP1;P1;durP2;ratioP2;P2;SDS_P1;SDS_P2;PMS_P1;PMS_P2;Temp;Humidity;BMP_temperature;BMP_pressure;BME280_temperature;BME280_humidity;BME280_pressure;Samples;Min_cycle;Max_cycle;Signal;HPM_P1;HPM_P2
2021/05/11 00:01:54;;;;;;;0.80;0.80;;;;;;;;;;5121023;28;20185;-39
2021/05/11 00:04:20;;;;;;;1.17;0.85;;;;;;;;;;5106780;28;20177;-39
2021/05/11 00:06:46;;;;;;;1.55;0.80;;;;;;;;;;5113459;28;20212;-39
2021/05/11 00:09:12;;;;;;;1.27;0.88;;;;;;;;;;5111632;28;20613;-40
2021/05/11 00:11:38;;;;;;;0.93;0.80;;;;;;;;;;5121273;28;20169;-40
2021/05/11 00:14:06;;;;;;;1.23;0.80;;;;;;;;;;5120773;28;20169;-40
2021/05/11 00:16:32;;;;;;;1.20;1.00;;;;;;;;;;5103542;28;20177;-40
2021/05/11 00:19:00;;;;;;;2.55;1.10;;;;;;;;;;5120703;28;20201;-40
2021/05/11 00:21:26;;;;;;;1.25;0.70;;;;;;;;;;5120752;28;20192;-40
2021/05/11 00:23:52;;;;;;;3.83;0.80;;;;;;;;;;5118414;28;20719;-40
2021/05/11 00:26:18;;;;;;;1.45;0.80;;;;;;;;;;5101027;28;20161;-40
2021/05/11 00:28:44;;;;;;;1.35;0.75;;;;;;;;;;5110829;28;20177;-40
2021/05/11 00:31:11;;;;;;;1.52;0.88;;;;;;;;;;5121141;28;20220;-40
2021/05/11 00:33:37;;;;;;;1.27;0.90;;;;;;;;;;5120381;28;20212;-40
2021/05/11 00:36:03;;;;;;;1.40;0.80;;;;;;;;;;5119838;28;20185;-40
2021/05/11 00:38:29;;;;;;;1.92;0.90;;;;;;;;;;5120806;28;20230;-40
2021/05/11 00:40:55;;;;;;;1.10;0.77;;;;;;;;;;5120803;28;20224;-40
2021/05/11 00:43:21;;;;;;;1.60;1.23;;;;;;;;;;5121387;28;20244;-39
2021/05/11 00:45:47;;;;;;;3.30;1.00;;;;;;;;;;5120633;28;20292;-39
2021/05/11 00:48:14;;;;;;;2.50;0.80;;;;;;;;;;5121708;28;20172;-39
2021/05/11 00:50:40;;;;;;;0.80;0.80;;;;;;;;;;5112620;28;20546;-39
2021/05/11 00:53:06;;;;;;;0.80;0.80;;;;;;;;;;5120932;28;20169;-39
2021/05/11 00:55:32;;;;;;;0.77;0.75;;;;;;;;;;5118692;28;20246;-39
2021/05/11 00:57:58;;;;;;;1.00;0.90;;;;;;;;;;5113729;28;20199;-39
2021/05/11 01:00:24;;;;;;;0.95;0.80;;;;;;;;;;5115431;28;20197;-40
2021/05/11 01:02:50;;;;;;;1.92;0.90;;;;;;;;;;5116782;28;20177;-40
2021/05/11 01:05:16;;;;;;;0.70;0.70;;;;;;;;;;5118151;28;20533;-40
2021/05/11 01:07:42;;;;;;;1.52;1.00;;;;;;;;;;5117447;28;20175;-40
2021/05/11 01:10:08;;;;;;;0.82;0.80;;;;;;;;;;5117448;28;20172;-40
2021/05/11 01:12:34;;;;;;;0.65;0.65;;;;;;;;;;5116192;28;20272;-40
2021/05/11 01:15:00;;;;;;;0.88;0.82;;;;;;;;;;5117357;28;20284;-40
2021/05/11 01:17:30;;;;;;;1.30;1.00;;;;;;;;;;5097690;28;20184;-40
2021/05/11 01:19:59;;;;;;;1.38;0.90;;;;;;;;;;5111258;28;20319;-40
2021/05/11 01:22:35;;;;;;;3.28;0.90;;;;;;;;;;5113575;28;20518;-40
2021/05/11 01:25:08;;;;;;;1.23;0.90;;;;;;;;;;5110474;28;20214;-40
2021/05/11 01:54:37;;;;;;;1.63;1.00;;;;;;;;;;5105427;28;20196;-40
2021/05/11 02:11:06;;;;;;;2.15;1.00;;;;;;;;;;5115700;28;20250;-39
2021/05/11 02:24:29;;;;;;;1.48;1.10;;;;;;;;;;5104603;28;20240;-39
2021/05/11 02:26:55;;;;;;;1.80;1.10;;;;;;;;;;5116454;28;20479;-39
2021/05/11 02:29:21;;;;;;;1.88;1.05;;;;;;;;;;5115865;28;20476;-39
2021/05/11 02:31:46;;;;;;;1.65;1.10;;;;;;;;;;5114807;28;20185;-39
2021/05/11 02:34:13;;;;;;;1.13;1.00;;;;;;;;;;5116376;28;20176;-40
2021/05/11 02:36:38;;;;;;;0.80;0.80;;;;;;;;;;5115560;28;20333;-40
2021/05/11 02:39:07;;;;;;;2.10;1.17;;;;;;;;;;5115142;28;20720;-39
2021/05/11 02:41:33;;;;;;;1.00;0.90;;;;;;;;;;5115016;28;20204;-39
2021/05/11 02:43:59;;;;;;;1.48;1.00;;;;;;;;;;5115784;28;20165;-39
2021/05/11 02:46:25;;;;;;;2.42;1.33;;;;;;;;;;5116074;28;20185;-39
2021/05/11 02:48:51;;;;;;;1.23;1.00;;;;;;;;;;5115715;28;20246;-39
2021/05/11 02:51:17;;;;;;;2.80;1.30;;;;;;;;;;5095347;28;20211;-39
2021/05/11 02:53:43;;;;;;;1.20;1.10;;;;;;;;;;5114182;28;20185;-39
2021/05/11 02:56:09;;;;;;;1.58;1.30;;;;;;;;;;5097624;28;20264;-39
2021/05/11 02:58:36;;;;;;;1.27;1.17;;;;;;;;;;5100532;28;20323;-39
2021/05/11 03:01:02;;;;;;;2.65;1.23;;;;;;;;;;5115111;28;20193;-39
2021/05/11 03:03:28;;;;;;;2.00;1.13;;;;;;;;;;5109051;28;20176;-40
2021/05/11 03:05:54;;;;;;;1.65;1.10;;;;;;;;;;5115407;28;20540;-40
2021/05/11 03:08:20;;;;;;;3.00;1.33;;;;;;;;;;5114827;28;20226;-39
2021/05/11 03:10:46;;;;;;;1.17;1.08;;;;;;;;;;5115164;28;20444;-39
2021/05/11 03:13:12;;;;;;;1.35;1.05;;;;;;;;;;5097401;28;20178;-39
2021/05/11 03:15:38;;;;;;;3.00;1.42;;;;;;;;;;5095214;28;20549;-39
2021/05/11 03:18:04;;;;;;;1.10;1.00;;;;;;;;;;5111012;28;20204;-39
2021/05/11 03:20:30;;;;;;;1.50;1.00;;;;;;;;;;5114369;28;20539;-39
2021/05/11 03:22:56;;;;;;;2.33;1.10;;;;;;;;;;5114336;28;20234;-39
2021/05/11 03:25:23;;;;;;;3.25;1.20;;;;;;;;;;5110897;28;20446;-39
2021/05/11 03:27:49;;;;;;;1.40;1.30;;;;;;;;;;5112878;28;20176;-39
2021/05/11 03:30:15;;;;;;;2.25;1.20;;;;;;;;;;5113514;28;20174;-39
2021/05/11 03:32:41;;;;;;;1.10;1.00;;;;;;;;;;5114337;28;20177;-39
2021/05/11 03:35:07;;;;;;;2.35;1.35;;;;;;;;;;5115309;28;20188;-39
2021/05/11 03:37:33;;;;;;;1.08;0.90;;;;;;;;;;5115026;28;20180;-39
2021/05/11 03:39:59;;;;;;;1.58;1.20;;;;;;;;;;5096987;28;20201;-39
2021/05/11 03:42:30;;;;;;;1.80;1.42;;;;;;;;;;5106445;28;20847;-39
2021/05/11 03:45:00;;;;;;;1.77;1.30;;;;;;;;;;5115386;28;20487;-39
2021/05/11 03:47:27;;;;;;;1.50;1.30;;;;;;;;;;5115071;28;20274;-39
2021/05/11 03:49:53;;;;;;;1.88;1.27;;;;;;;;;;5114907;28;20176;-39
2021/05/11 03:52:19;;;;;;;1.30;1.20;;;;;;;;;;5113907;28;20536;-39
2021/05/11 03:54:45;;;;;;;2.58;1.30;;;;;;;;;;5115076;28;20165;-39
2021/05/11 03:57:12;;;;;;;1.38;1.20;;;;;;;;;;5115043;28;20185;-39
2021/05/11 03:59:38;;;;;;;2.28;1.35;;;;;;;;;;5114866;28;20200;-40
2021/05/11 04:02:07;;;;;;;1.40;0.98;;;;;;;;;;5110216;28;20189;-39
2021/05/11 04:04:34;;;;;;;2.50;1.50;;;;;;;;;;5115240;28;20536;-39
2021/05/11 04:07:00;;;;;;;1.30;1.20;;;;;;;;;;5114913;28;20548;-39
2021/05/11 04:09:45;;;;;;;6.78;2.85;;;;;;;;;;5113800;28;20447;-39
2021/05/11 04:17:21;;;;;;;18.20;5.20;;;;;;;;;;5114742;28;20575;-39
2021/05/11 04:19:47;;;;;;;17.35;4.68;;;;;;;;;;5113644;28;20205;-39
2021/05/11 04:22:13;;;;;;;13.20;4.65;;;;;;;;;;5106862;28;20445;-39
2021/05/11 04:24:39;;;;;;;20.45;4.90;;;;;;;;;;5114812;28;20181;-39
2021/05/11 04:27:05;;;;;;;20.55;5.10;;;;;;;;;;5114884;28;20225;-40
2021/05/11 04:29:34;;;;;;;18.17;5.18;;;;;;;;;;5109133;28;20261;-40
2021/05/11 04:31:59;;;;;;;20.08;5.70;;;;;;;;;;5108598;28;20182;-40
2021/05/11 04:34:25;;;;;;;18.52;5.70;;;;;;;;;;5112417;28;20258;-39
2021/05/11 04:36:51;;;;;;;23.58;7.70;;;;;;;;;;5118373;28;20181;-39
2021/05/11 04:39:17;;;;;;;22.45;6.63;;;;;;;;;;5118170;28;20208;-39
2021/05/11 04:41:44;;;;;;;25.55;7.32;;;;;;;;;;5101024;28;20542;-39
2021/05/11 04:44:10;;;;;;;20.50;6.78;;;;;;;;;;5115325;28;20173;-39
2021/05/11 04:46:47;;;;;;;26.38;6.95;;;;;;;;;;5118480;28;20260;-39
2021/05/11 04:49:13;;;;;;;26.98;7.60;;;;;;;;;;5118310;28;20173;-39
2021/05/11 04:51:39;;;;;;;25.38;8.15;;;;;;;;;;5116775;28;20253;-39
2021/05/11 04:54:05;;;;;;;21.83;6.70;;;;;;;;;;5111409;28;20182;-39
2021/05/11 04:56:31;;;;;;;26.83;7.35;;;;;;;;;;5118151;28;20177;-39
2021/05/11 04:58:57;;;;;;;24.70;7.53;;;;;;;;;;5117855;28;20238;-39
2021/05/11 05:01:24;;;;;;;22.42;7.72;;;;;;;;;;5116477;28;20196;-40
2021/05/11 05:03:52;;;;;;;24.70;7.63;;;;;;;;;;5117779;28;20180;-39
2021/05/11 05:06:19;;;;;;;21.02;6.90;;;;;;;;;;5117381;28;20177;-39
2021/05/11 05:08:44;;;;;;;24.30;7.55;;;;;;;;;;5116628;28;20209;-39
2021/05/11 05:11:10;;;;;;;20.85;7.53;;;;;;;;;;5116581;28;20207;-39
2021/05/11 05:13:36;;;;;;;21.23;7.85;;;;;;;;;;5117814;28;20177;-39
2021/05/11 05:16:02;;;;;;;20.05;7.38;;;;;;;;;;5117611;28;20184;-39
2021/05/11 05:18:29;;;;;;;27.45;7.95;;;;;;;;;;5117354;28;20200;-39
2021/05/11 05:20:55;;;;;;;25.02;7.20;;;;;;;;;;5114618;28;20192;-39
2021/05/11 05:23:28;;;;;;;21.15;7.50;;;;;;;;;;5105712;28;20180;-39
2021/05/11 05:25:58;;;;;;;17.13;5.72;;;;;;;;;;5116090;28;20532;-39
2021/05/11 05:28:25;;;;;;;14.05;5.07;;;;;;;;;;5110947;28;20200;-39
2021/05/11 05:30:51;;;;;;;11.13;4.15;;;;;;;;;;5103812;28;20177;-39
2021/05/11 05:33:17;;;;;;;10.60;4.10;;;;;;;;;;5113447;28;20190;-42
2021/05/11 05:35:45;;;;;;;7.60;2.53;;;;;;;;;;5114520;28;20177;-40
2021/05/11 05:38:11;;;;;;;6.53;2.25;;;;;;;;;;5116929;28;20563;-43
2021/05/11 05:40:40;;;;;;;3.05;1.58;;;;;;;;;;5115969;28;20433;-40
2021/05/11 05:43:09;;;;;;;5.28;1.92;;;;;;;;;;5114916;28;20314;-39
2021/05/11 05:45:35;;;;;;;12.30;1.95;;;;;;;;;;5116965;28;20165;-39
2021/05/11 05:48:01;;;;;;;3.58;1.75;;;;;;;;;;5117014;28;20205;-41
2021/05/11 05:50:30;;;;;;;2.10;1.52;;;;;;;;;;5116213;28;20526;-41
2021/05/11 05:52:59;;;;;;;1.35;1.25;;;;;;;;;;5098840;28;20166;-39
2021/05/11 05:55:25;;;;;;;2.90;1.80;;;;;;;;;;5102514;28;20571;-41
2021/05/11 05:57:52;;;;;;;2.70;1.50;;;;;;;;;;5099586;28;20424;-40
2021/05/11 06:00:18;;;;;;;1.85;1.40;;;;;;;;;;5102194;28;20188;-40
2021/05/11 06:02:46;;;;;;;1.80;1.30;;;;;;;;;;5115183;28;20197;-42
2021/05/11 06:05:13;;;;;;;1.40;1.30;;;;;;;;;;5116215;28;20163;-42
2021/05/11 06:07:39;;;;;;;1.83;1.30;;;;;;;;;;5116606;28;20241;-42
2021/05/11 06:10:12;;;;;;;1.80;1.00;;;;;;;;;;5116604;28;20695;-42
2021/05/11 06:13:28;;;;;;;5.97;1.50;;;;;;;;;;5095901;28;20173;-42
2021/05/11 06:18:11;;;;;;;2.38;1.33;;;;;;;;;;5116767;28;20268;-42
2021/05/11 06:20:37;;;;;;;2.05;1.40;;;;;;;;;;5115249;28;20619;-42
2021/05/11 06:23:03;;;;;;;4.03;1.10;;;;;;;;;;5116472;28;20244;-42
2021/05/11 06:25:29;;;;;;;1.45;1.25;;;;;;;;;;5116420;28;20550;-42
2021/05/11 06:27:56;;;;;;;1.90;1.30;;;;;;;;;;5114282;28;20173;-42
2021/05/11 06:30:23;;;;;;;2.45;1.50;;;;;;;;;;5114587;28;20219;-42
2021/05/11 06:32:49;;;;;;;4.05;1.80;;;;;;;;;;5115147;28;20176;-42
2021/05/11 06:35:15;;;;;;;2.28;1.40;;;;;;;;;;5108753;28;20178;-42
2021/05/11 06:37:41;;;;;;;1.50;1.40;;;;;;;;;;5098560;28;20196;-42
2021/05/11 06:40:07;;;;;;;1.60;1.27;;;;;;;;;;5115963;28;20220;-42
2021/05/11 06:42:37;;;;;;;1.35;1.20;;;;;;;;;;5113960;28;20218;-42
2021/05/11 06:50:15;;;;;;;3.60;1.55;;;;;;;;;;5115792;28;20181;-42
2021/05/11 06:55:08;;;;;;;2.72;1.40;;;;;;;;;;5114767;28;20161;-42
2021/05/11 06:57:35;;;;;;;1.85;1.30;;;;;;;;;;5115673;28;20607;-42
2021/05/11 07:00:01;;;;;;;2.13;1.20;;;;;;;;;;5115453;28;20193;-42
2021/05/11 07:02:29;;;;;;;2.03;1.38;;;;;;;;;;5112338;28;20177;-42
2021/05/11 07:04:55;;;;;;;1.60;1.50;;;;;;;;;;5115684;28;20177;-42
2021/05/11 07:07:22;;;;;;;2.15;1.70;;;;;;;;;;5114506;28;20163;-42
2021/05/11 07:15:00;;;;;;;4.15;1.63;;;;;;;;;;5115769;28;20276;-41
2021/05/11 07:17:26;;;;;;;2.70;1.58;;;;;;;;;;5114927;28;20237;-42
2021/05/11 07:19:53;;;;;;;1.38;1.27;;;;;;;;;;5115339;28;20200;-42
2021/05/11 07:22:19;;;;;;;3.65;1.23;;;;;;;;;;5114162;28;20612;-42
2021/05/11 07:24:47;;;;;;;1.48;1.10;;;;;;;;;;5115416;28;20195;-42
2021/05/11 07:29:56;;;;;;;1.42;1.33;;;;;;;;;;5114801;28;20173;-42
2021/05/11 07:32:22;;;;;;;3.72;1.80;;;;;;;;;;5114295;28;20169;-41
2021/05/11 07:34:52;;;;;;;2.33;1.10;;;;;;;;;;5115090;28;20692;-40
2021/05/11 07:37:18;;;;;;;1.60;1.50;;;;;;;;;;5115261;28;20161;-42
2021/05/11 07:39:45;;;;;;;2.00;1.70;;;;;;;;;;5113879;28;20192;-42
2021/05/11 07:42:12;;;;;;;1.73;1.23;;;;;;;;;;5113867;28;20193;-42
2021/05/11 07:44:41;;;;;;;3.30;1.23;;;;;;;;;;5115130;28;20200;-40
2021/05/11 07:48:09;;;;;;;2.97;1.70;;;;;;;;;;5114949;28;20165;-40
2021/05/11 08:04:06;;;;;;;3.42;1.45;;;;;;;;;;5114447;28;20188;-40
2021/05/11 08:15:19;;;;;;;2.97;1.67;;;;;;;;;;5117707;28;20196;-40
2021/05/11 08:17:51;;;;;;;2.58;1.70;;;;;;;;;;5117546;28;20172;-40
2021/05/11 08:20:34;;;;;;;2.58;1.73;;;;;;;;;;5118473;28;20292;-40
2021/05/11 08:23:31;;;;;;;3.35;1.55;;;;;;;;;;5118624;28;20173;-40
2021/05/11 08:28:43;;;;;;;1.40;1.30;;;;;;;;;;5106573;28;20246;-40
2021/05/11 08:31:09;;;;;;;2.38;1.52;;;;;;;;;;5097865;28;20386;-40
2021/05/11 08:33:35;;;;;;;3.47;1.67;;;;;;;;;;5098121;28;20403;-40
2021/05/11 08:36:02;;;;;;;1.95;1.70;;;;;;;;;;5097915;28;20166;-40
2021/05/11 08:38:28;;;;;;;1.73;1.40;;;;;;;;;;5107616;28;20507;-40
2021/05/11 08:40:54;;;;;;;2.40;1.65;;;;;;;;;;5118007;28;20169;-40
2021/05/11 08:43:31;;;;;;;4.50;1.67;;;;;;;;;;5118443;28;20180;-40
2021/05/11 08:45:59;;;;;;;3.13;1.58;;;;;;;;;;5118504;28;20490;-40
2021/05/11 08:48:25;;;;;;;5.55;2.13;;;;;;;;;;5108834;28;20205;-40
2021/05/11 08:50:58;;;;;;;3.53;2.08;;;;;;;;;;5106268;28;20189;-40
2021/05/11 09:04:39;;;;;;;2.95;2.65;;;;;;;;;;5117941;28;20176;-40
2021/05/11 09:23:58;;;;;;;4.55;2.08;;;;;;;;;;5116966;28;20558;-41
2021/05/11 09:26:42;;;;;;;2.63;1.70;;;;;;;;;;5108919;28;20258;-40
2021/05/11 09:29:30;;;;;;;3.30;2.47;;;;;;;;;;5105661;28;20161;-40
2021/05/11 10:47:04;;;;;;;4.22;2.42;;;;;;;;;;5115704;28;20252;-40
2021/05/11 10:49:31;;;;;;;2.63;2.10;;;;;;;;;;5108097;28;20217;-40
2021/05/11 10:52:13;;;;;;;2.58;1.95;;;;;;;;;;5094944;28;20201;-40
2021/05/11 10:54:42;;;;;;;5.13;2.05;;;;;;;;;;5113470;28;20199;-42
2021/05/11 10:57:28;;;;;;;2.40;1.90;;;;;;;;;;5116008;28;20165;-40
2021/05/11 11:00:16;;;;;;;3.15;1.83;;;;;;;;;;5114656;28;20236;-40
2021/05/11 11:02:47;;;;;;;4.45;2.05;;;;;;;;;;5113430;28;20173;-40
2021/05/11 11:05:33;;;;;;;4.07;2.17;;;;;;;;;;5114747;28;20169;-40
2021/05/11 11:07:59;;;;;;;3.60;1.90;;;;;;;;;;5112934;28;20193;-40
2021/05/11 11:10:28;;;;;;;3.25;1.90;;;;;;;;;;5093310;28;20820;-40
2021/05/11 11:12:54;;;;;;;4.32;2.15;;;;;;;;;;5093519;28;20166;-40
2021/05/11 11:15:21;;;;;;;2.80;1.70;;;;;;;;;;5093652;28;20352;-40
2021/05/11 11:17:49;;;;;;;2.67;2.08;;;;;;;;;;5105745;28;20510;-40
2021/05/11 11:20:16;;;;;;;3.90;2.25;;;;;;;;;;5115344;28;20228;-40
2021/05/11 11:25:28;;;;;;;3.85;2.05;;;;;;;;;;5115433;28;20460;-42
2021/05/11 11:27:54;;;;;;;3.92;2.30;;;;;;;;;;5102169;28;20559;-42
2021/05/11 11:30:20;;;;;;;5.20;2.30;;;;;;;;;;5095101;28;20181;-42
2021/05/11 11:32:47;;;;;;;3.38;2.40;;;;;;;;;;5094707;28;20170;-42
2021/05/11 11:35:13;;;;;;;2.40;2.20;;;;;;;;;;5094649;28;20253;-40
2021/05/11 11:37:41;;;;;;;2.15;1.90;;;;;;;;;;5105332;28;20601;-40
2021/05/11 11:40:08;;;;;;;3.13;2.20;;;;;;;;;;5096848;28;20204;-40
2021/05/11 11:42:46;;;;;;;2.85;2.40;;;;;;;;;;5114596;28;20172;-42
2021/05/11 11:45:21;;;;;;;2.58;2.38;;;;;;;;;;5111847;28;20169;-42
2021/05/11 11:47:55;;;;;;;6.68;2.30;;;;;;;;;;5094382;28;20248;-42
2021/05/11 11:50:21;;;;;;;2.58;2.03;;;;;;;;;;5103804;28;20174;-42
2021/05/11 11:55:52;;;;;;;4.60;2.45;;;;;;;;;;5114517;28;20181;-42
2021/05/11 11:58:26;;;;;;;2.90;2.28;;;;;;;;;;5114842;28;20256;-42
2021/05/11 12:00:52;;;;;;;3.45;2.45;;;;;;;;;;5114798;28;20473;-42
2021/05/11 12:03:21;;;;;;;2.03;1.83;;;;;;;;;;5114318;28;20544;-41
2021/05/11 12:05:59;;;;;;;4.18;2.03;;;;;;;;;;5094605;28;20177;-40
2021/05/11 12:08:29;;;;;;;2.30;2.05;;;;;;;;;;5094488;28;20174;-40
2021/05/11 12:10:55;;;;;;;2.85;1.88;;;;;;;;;;5093868;28;20166;-40
2021/05/11 12:13:28;;;;;;;3.42;2.00;;;;;;;;;;5094978;28;20169;-40
2021/05/11 12:16:10;;;;;;;3.63;2.38;;;;;;;;;;5114934;28;20169;-40
2021/05/11 12:18:37;;;;;;;5.78;2.25;;;;;;;;;;5114830;28;20227;-40
2021/05/11 12:21:04;;;;;;;3.00;2.00;;;;;;;;;;5113430;28;20180;-40
2021/05/11 12:23:31;;;;;;;3.80;2.15;;;;;;;;;;5113141;28;20173;-40
2021/05/11 12:26:01;;;;;;;3.33;2.42;;;;;;;;;;5106239;28;20242;-40
2021/05/11 12:28:30;;;;;;;3.88;2.22;;;;;;;;;;5114526;28;20177;-40
2021/05/11 12:30:56;;;;;;;5.40;2.20;;;;;;;;;;5113128;28;20607;-40
2021/05/11 12:33:31;;;;;;;3.83;2.10;;;;;;;;;;5111310;28;20258;-40
2021/05/11 12:35:57;;;;;;;3.30;1.98;;;;;;;;;;5110170;28;20216;-40
2021/05/11 12:38:27;;;;;;;3.92;2.33;;;;;;;;;;5114006;28;20185;-40
2021/05/11 12:43:43;;;;;;;4.45;2.40;;;;;;;;;;5113541;28;20249;-40
2021/05/11 12:46:16;;;;;;;5.00;2.40;;;;;;;;;;5108682;28;20192;-40
2021/05/11 12:48:52;;;;;;;5.70;2.25;;;;;;;;;;5113542;28;20229;-40
2021/05/11 12:51:25;;;;;;;4.35;2.45;;;;;;;;;;5113953;28;20253;-40
2021/05/11 12:53:53;;;;;;;2.83;2.33;;;;;;;;;;5117267;28;20188;-40
2021/05/11 12:57:02;;;;;;;4.97;2.40;;;;;;;;;;5117641;28;20229;-40
2021/05/11 13:02:38;;;;;;;3.10;2.30;;;;;;;;;;5114298;28;20259;-40
2021/05/11 13:16:35;;;;;;;4.40;2.70;;;;;;;;;;5099308;28;20697;-43
2021/05/11 13:27:06;;;;;;;6.00;2.88;;;;;;;;;;5117339;28;20196;-40
2021/05/11 13:32:05;;;;;;;5.85;2.55;;;;;;;;;;5104276;28;20173;-40
2021/05/11 13:34:34;;;;;;;6.65;3.13;;;;;;;;;;5117613;28;20176;-40
2021/05/11 13:37:00;;;;;;;5.10;2.67;;;;;;;;;;5117608;28;20187;-40
2021/05/11 13:39:26;;;;;;;3.95;2.58;;;;;;;;;;5116912;28;20201;-40
2021/05/11 13:41:52;;;;;;;2.67;2.47;;;;;;;;;;5116457;28;20483;-40
2021/05/11 13:44:19;;;;;;;4.60;2.58;;;;;;;;;;5098777;28;20196;-40
2021/05/11 13:46:45;;;;;;;5.88;2.70;;;;;;;;;;5117185;28;20170;-40
2021/05/11 13:49:14;;;;;;;3.00;2.33;;;;;;;;;;5115492;28;20544;-40
2021/05/11 13:51:40;;;;;;;2.60;2.40;;;;;;;;;;5096130;28;20192;-40
2021/05/11 13:54:08;;;;;;;7.47;2.97;;;;;;;;;;5096694;28;20221;-40
2021/05/11 14:04:44;;;;;;;4.18;2.53;;;;;;;;;;5116025;28;20218;-40
2021/05/11 14:07:10;;;;;;;5.50;2.75;;;;;;;;;;5116283;28;20256;-40
2021/05/11 14:09:36;;;;;;;3.70;2.40;;;;;;;;;;5115785;28;20192;-40
2021/05/11 14:12:03;;;;;;;6.90;2.47;;;;;;;;;;5105972;28;20185;-40
2021/05/11 14:14:29;;;;;;;3.03;2.40;;;;;;;;;;5096375;28;20231;-40
2021/05/11 14:16:55;;;;;;;5.88;2.80;;;;;;;;;;5097744;28;20165;-40
2021/05/11 14:19:21;;;;;;;6.15;3.05;;;;;;;;;;5115677;28;20641;-40
2021/05/11 14:21:47;;;;;;;6.55;2.95;;;;;;;;;;5115818;28;20213;-40
2021/05/11 14:24:13;;;;;;;4.70;2.67;;;;;;;;;;5116367;28;20256;-40
2021/05/11 14:26:40;;;;;;;4.00;3.03;;;;;;;;;;5116002;28;20173;-40
2021/05/11 14:29:06;;;;;;;5.90;3.08;;;;;;;;;;5110099;28;20191;-40
2021/05/11 14:31:32;;;;;;;4.32;3.00;;;;;;;;;;5115624;28;20185;-40
2021/05/11 14:33:58;;;;;;;6.30;3.00;;;;;;;;;;5116419;28;20222;-40
2021/05/11 14:36:24;;;;;;;4.65;3.35;;;;;;;;;;5115678;28;20177;-40
2021/05/11 14:38:51;;;;;;;5.72;2.78;;;;;;;;;;5115370;28;20226;-40
2021/05/11 14:41:17;;;;;;;4.38;2.90;;;;;;;;;;5115305;28;20192;-40
2021/05/11 14:43:43;;;;;;;4.45;2.80;;;;;;;;;;5115503;28;20436;-42
2021/05/11 14:46:10;;;;;;;4.63;2.90;;;;;;;;;;5116229;28;20525;-41
2021/05/11 14:48:36;;;;;;;3.58;2.40;;;;;;;;;;5115936;28;20184;-40
2021/05/11 14:51:03;;;;;;;3.58;2.72;;;;;;;;;;5115108;28;20181;-40
2021/05/11 14:53:30;;;;;;;6.03;2.63;;;;;;;;;;5116012;28;20169;-40
2021/05/11 14:55:56;;;;;;;4.72;2.63;;;;;;;;;;5115754;28;20173;-41
2021/05/11 14:58:22;;;;;;;7.35;2.70;;;;;;;;;;5115850;28;20181;-40
2021/05/11 15:00:48;;;;;;;4.30;2.60;;;;;;;;;;5114714;28;20590;-40
2021/05/11 15:03:14;;;;;;;5.30;2.90;;;;;;;;;;5098256;28;20174;-40
2021/05/11 15:05:41;;;;;;;6.30;2.90;;;;;;;;;;5096736;28;20227;-40
2021/05/11 15:08:08;;;;;;;4.65;2.80;;;;;;;;;;5115498;28;20218;-40
2021/05/11 15:10:35;;;;;;;4.30;3.05;;;;;;;;;;5115155;28;20202;-40
2021/05/11 15:13:01;;;;;;;3.92;3.28;;;;;;;;;;5115745;28;20691;-40
2021/05/11 15:15:28;;;;;;;3.45;2.83;;;;;;;;;;5113082;28;20260;-40
2021/05/11 15:20:20;;;;;;;5.10;3.30;;;;;;;;;;5113790;28;20491;-40
2021/05/11 15:22:52;;;;;;;3.60;2.80;;;;;;;;;;5114566;28;20187;-40
2021/05/11 15:25:18;;;;;;;6.18;2.70;;;;;;;;;;5114135;28;20205;-40
2021/05/11 15:27:45;;;;;;;3.78;3.13;;;;;;;;;;5110974;28;20192;-40
2021/05/11 15:30:11;;;;;;;3.60;2.80;;;;;;;;;;5123753;27;20188;-40
2021/05/11 15:32:40;;;;;;;4.82;2.95;;;;;;;;;;5113506;28;20171;-40
2021/05/11 15:35:09;;;;;;;3.33;2.50;;;;;;;;;;5114216;28;20211;-40
2021/05/11 15:37:35;;;;;;;4.72;2.80;;;;;;;;;;5114527;28;20192;-40
2021/05/11 15:40:03;;;;;;;4.65;3.05;;;;;;;;;;5113816;28;20196;-40
2021/05/11 15:42:29;;;;;;;4.22;2.83;;;;;;;;;;5113491;28;20169;-40
2021/05/11 15:44:55;;;;;;;3.33;3.03;;;;;;;;;;5115058;28;20495;-40
2021/05/11 15:47:22;;;;;;;3.80;2.83;;;;;;;;;;5113534;28;20261;-40
2021/05/11 15:49:48;;;;;;;4.78;3.45;;;;;;;;;;5111639;28;20180;-40
2021/05/11 15:52:14;;;;;;;6.93;4.35;;;;;;;;;;5111142;28;20184;-40
2021/05/11 15:54:40;;;;;;;5.63;4.25;;;;;;;;;;5113399;28;20187;-40
2021/05/11 15:57:06;;;;;;;6.75;4.18;;;;;;;;;;5111616;28;20173;-40
2021/05/11 15:59:32;;;;;;;4.55;3.30;;;;;;;;;;5113464;28;20230;-40
2021/05/11 16:01:59;;;;;;;3.67;2.97;;;;;;;;;;5112463;28;20173;-40
2021/05/11 16:04:25;;;;;;;4.68;2.92;;;;;;;;;;5115100;28;20240;-40
2021/05/11 16:06:51;;;;;;;6.53;2.75;;;;;;;;;;5100605;28;20303;-40
2021/05/11 16:09:17;;;;;;;4.78;2.75;;;;;;;;;;5105672;28;20264;-40
2021/05/11 16:11:43;;;;;;;4.70;2.85;;;;;;;;;;5108253;28;20189;-40
2021/05/11 16:14:09;;;;;;;4.18;3.00;;;;;;;;;;5114078;28;20200;-40
2021/05/11 16:16:35;;;;;;;3.20;2.65;;;;;;;;;;5113342;28;20189;-40
2021/05/11 16:19:01;;;;;;;5.28;2.47;;;;;;;;;;5113854;28;20464;-40
2021/05/11 16:21:27;;;;;;;3.25;2.65;;;;;;;;;;5114016;28;20193;-40
2021/05/11 16:23:56;;;;;;;4.10;3.00;;;;;;;;;;5102110;28;20190;-41
2021/05/11 16:26:24;;;;;;;3.47;2.60;;;;;;;;;;5114948;28;20463;-40
2021/05/11 16:28:51;;;;;;;4.53;2.40;;;;;;;;;;5105931;28;20227;-40
2021/05/11 16:31:17;;;;;;;4.75;2.72;;;;;;;;;;5111594;28;20181;-40
2021/05/11 16:33:43;;;;;;;3.90;2.67;;;;;;;;;;5116587;28;20254;-40
2021/05/11 16:36:09;;;;;;;5.50;2.30;;;;;;;;;;5118546;28;20238;-40
2021/05/11 16:38:35;;;;;;;4.63;2.40;;;;;;;;;;5117267;28;20181;-40
2021/05/11 16:41:01;;;;;;;4.15;2.20;;;;;;;;;;5116985;28;20181;-40
2021/05/11 16:43:27;;;;;;;4.82;2.50;;;;;;;;;;5117666;28;20184;-40
2021/05/11 16:45:55;;;;;;;3.45;2.33;;;;;;;;;;5117139;28;20256;-40
2021/05/11 16:48:21;;;;;;;6.05;2.40;;;;;;;;;;5116323;28;20192;-40
2021/05/11 16:50:47;;;;;;;6.25;2.80;;;;;;;;;;5117913;28;20530;-40
2021/05/11 16:53:15;;;;;;;6.13;2.60;;;;;;;;;;5117833;28;20181;-40
2021/05/11 16:55:42;;;;;;;4.22;2.97;;;;;;;;;;5096672;28;20429;-40
2021/05/11 16:58:08;;;;;;;7.47;3.13;;;;;;;;;;5108550;28;20185;-40
2021/05/11 17:00:35;;;;;;;4.93;2.78;;;;;;;;;;5116639;28;20218;-40
2021/05/11 17:03:02;;;;;;;3.22;2.60;;;;;;;;;;5116799;28;20176;-40
2021/05/11 17:05:28;;;;;;;5.65;2.83;;;;;;;;;;5116029;28;20805;-40
2021/05/11 17:07:54;;;;;;;7.03;3.25;;;;;;;;;;5115806;28;20531;-40
2021/05/11 17:10:21;;;;;;;5.05;2.65;;;;;;;;;;5117222;28;20185;-40
2021/05/11 17:12:51;;;;;;;6.25;2.95;;;;;;;;;;5115432;28;20181;-40
2021/05/11 17:15:18;;;;;;;5.38;3.13;;;;;;;;;;5111439;28;20181;-40
2021/05/11 17:17:46;;;;;;;4.85;3.30;;;;;;;;;;5116169;28;20185;-40
2021/05/11 17:20:12;;;;;;;4.72;2.88;;;;;;;;;;5116798;28;20287;-41
2021/05/11 17:22:39;;;;;;;6.32;3.03;;;;;;;;;;5113781;28;20181;-40
2021/05/11 17:25:06;;;;;;;4.00;3.25;;;;;;;;;;5116957;28;20173;-41
2021/05/11 17:27:32;;;;;;;5.65;3.45;;;;;;;;;;5117133;28;20173;-41
2021/05/11 17:30:02;;;;;;;6.10;3.13;;;;;;;;;;5115957;28;20188;-41
2021/05/11 17:32:28;;;;;;;5.03;3.42;;;;;;;;;;5115306;28;20600;-41
2021/05/11 17:34:54;;;;;;;8.38;3.60;;;;;;;;;;5116980;28;20185;-41
2021/05/11 17:37:21;;;;;;;5.60;3.60;;;;;;;;;;5116501;28;20567;-41
2021/05/11 17:39:47;;;;;;;4.70;3.63;;;;;;;;;;5116197;28;20349;-41
2021/05/11 17:42:13;;;;;;;4.30;3.20;;;;;;;;;;5114004;28;20587;-41
2021/05/11 17:44:39;;;;;;;5.97;3.00;;;;;;;;;;5115189;28;20177;-41
2021/05/11 17:47:05;;;;;;;5.65;3.80;;;;;;;;;;5106866;28;20200;-41
2021/05/11 17:49:32;;;;;;;4.45;3.22;;;;;;;;;;5116369;28;20592;-41
2021/05/11 17:51:58;;;;;;;5.55;3.22;;;;;;;;;;5115392;28;20208;-41
2021/05/11 17:54:24;;;;;;;7.15;3.45;;;;;;;;;;5114537;28;20226;-41
2021/05/11 17:56:50;;;;;;;7.53;3.10;;;;;;;;;;5116094;28;20712;-41
2021/05/11 17:59:16;;;;;;;6.40;3.50;;;;;;;;;;5116354;28;20296;-41
2021/05/11 18:01:43;;;;;;;6.13;4.10;;;;;;;;;;5115740;28;20181;-41
2021/05/11 18:04:09;;;;;;;5.95;5.35;;;;;;;;;;5112978;28;20333;-41
2021/05/11 18:06:35;;;;;;;7.38;4.47;;;;;;;;;;5111067;28;20618;-41
2021/05/11 18:09:01;;;;;;;6.30;3.15;;;;;;;;;;5113003;28;20548;-41
2021/05/11 18:11:27;;;;;;;6.55;3.83;;;;;;;;;;5113535;28;20193;-41
2021/05/11 18:13:53;;;;;;;4.00;3.58;;;;;;;;;;5113955;28;20258;-41
2021/05/11 18:16:19;;;;;;;3.83;3.30;;;;;;;;;;5115819;28;20659;-41
2021/05/11 18:18:46;;;;;;;6.57;3.85;;;;;;;;;;5112136;28;20209;-41
2021/05/11 18:21:12;;;;;;;4.53;3.40;;;;;;;;;;5112480;28;20193;-41
2021/05/11 18:23:38;;;;;;;3.58;3.28;;;;;;;;;;5114724;28;20621;-41
2021/05/11 18:26:05;;;;;;;4.07;3.65;;;;;;;;;;5113709;28;20260;-41
2021/05/11 18:28:31;;;;;;;4.53;3.85;;;;;;;;;;5114856;28;20696;-41
2021/05/11 18:30:57;;;;;;;4.00;3.50;;;;;;;;;;5114929;28;20208;-41
2021/05/11 18:33:23;;;;;;;5.20;3.63;;;;;;;;;;5115709;28;20564;-41
2021/05/11 18:35:49;;;;;;;4.40;4.00;;;;;;;;;;5113025;28;20182;-41
2021/05/11 18:38:20;;;;;;;5.90;4.10;;;;;;;;;;5107240;28;20642;-41
2021/05/11 18:40:47;;;;;;;4.30;3.97;;;;;;;;;;5113859;28;20228;-41
2021/05/11 18:43:13;;;;;;;5.40;4.45;;;;;;;;;;5115980;28;20173;-41
2021/05/11 18:45:39;;;;;;;4.93;3.63;;;;;;;;;;5114821;28;20188;-41
2021/05/11 18:48:05;;;;;;;5.78;3.83;;;;;;;;;;5115109;28;20173;-41
2021/05/11 18:50:33;;;;;;;6.40;4.43;;;;;;;;;;5114991;28;20185;-41
2021/05/11 18:52:59;;;;;;;4.65;4.15;;;;;;;;;;5113035;28;20192;-41